Winthrop, WA (98862)

9:39 PM PDT on August 24, 2016 (GMT -0700)
HADS | | Change Station

Elev 1752 ft 48.48 °N, 120.19 °W | Updated 1 hour ago

Clear
Clear
70.0 °F
Feels Like 70.0 °F
N
0.0
Wind Variable Wind from North
Gusts 0.0 mph

Today
High -- | Low -- °F
--% Chance of Precip.
Yesterday
High -- | Low -- °F
Precip. -- in
Pressure 30.14 in
Visibility 10.0 miles
Clouds Clear
Dew Point Not available.
Humidity Not available.
Rainfall in
Snow Depth Not available.
6:07 AM 7:57 PM
Waning Gibbous, 50% visible
METAR KOMK 250353Z AUTO 35010KT 10SM CLR 24/01 A3016 RMK AO2 SLP206 T02390006
Pressure 30.14 in
Visibility 10.0 miles
Clouds Clear
Dew Point Not available.
Humidity Not available.
Rainfall in
Snow Depth Not available.
6:07 AM 7:57 PM
Waning Gibbous, 50% visible
METAR KOMK 250353Z AUTO 35010KT 10SM CLR 24/01 A3016 RMK AO2 SLP206 T02390006

10-Day Weather Forecast

Almanac

Astronomy

Aug. 24, 2016 Rise Set
Actual Time
Civil Twilight
Nautical Twilight
Astronomical Twilight
Moon
Length of Visible Light
Length of Day
Tomorrow will be .
, % of the Moon is Illuminated

Today's Extremes

State Highs State Lows

Community

WunderPhotos

Upload Photos

1,934,796 photos uploaded!

WunderBlog® & News

Nearby

Air Quality

  Air Quality AQ Index Pollutant
Not available.

Snow Depth

Station Depth Elevation

Earthquake Activity

City Distance Mag. Time & Date
Minimum magnitude displayed is 2.5.

Coastal Water Temperatures

Place Temperature

Stations

Nearby Weather Stations

Station Location Temp. Windchill Dew Point Humidity Wind Precip. Elev Updated Type
                   

Watches & Warnings

There are currently no watches in effect.